Terminal Aerodrome Forecast
Issued by NWS

Home | Current Version | Previous Version | Text Only | Print | Product List | Glossary On
Versions: 1 2 3 4 5 6 7 8 9 10 11 12 13 14 15 16 17 18 19 20
000
FTUS41 KBOX 042321
TAFHYA
TAF
KHYA 042321Z 0500/0524 05010G21KT 3SM -RA BR OVC005
     FM050400 04011G21KT 3SM -RADZ BR OVC005
     FM050800 03011G25KT 3SM -DZ BR VCSH OVC008
     FM051100 04011G26KT 3SM -RADZ BR OVC008
     FM051300 04012G25KT 2SM -SHRADZ BR OVC008=

USA.gov is the U.S. government's official web portal to all federal, state and local government web resources and services.